sensor_id;sensor_type;location;lat;lon;timestamp;temperature;humidity
4487;DHT22;2256;48.740;9.106;2023-05-29T00:01:03;13.40;99.90
4487;DHT22;2256;48.740;9.106;2023-05-29T00:03:32;13.20;99.90
4487;DHT22;2256;48.740;9.106;2023-05-29T00:06:01;13.10;99.90
4487;DHT22;2256;48.740;9.106;2023-05-29T00:08:28;13.00;99.90
4487;DHT22;2256;48.740;9.106;2023-05-29T00:10:56;13.10;99.90
4487;DHT22;2256;48.740;9.106;2023-05-29T00:13:23;13.00;99.90
4487;DHT22;2256;48.740;9.106;2023-05-29T00:15:50;13.10;99.90
4487;DHT22;2256;48.740;9.106;2023-05-29T00:18:18;13.10;99.90
4487;DHT22;2256;48.740;9.106;2023-05-29T00:20:44;13.10;99.90
4487;DHT22;2256;48.740;9.106;2023-05-29T00:23:12;13.10;99.90
4487;DHT22;2256;48.740;9.106;2023-05-29T00:25:39;13.00;99.90
4487;DHT22;2256;48.740;9.106;2023-05-29T00:28:08;13.00;99.90
4487;DHT22;2256;48.740;9.106;2023-05-29T00:30:35;13.10;99.90
4487;DHT22;2256;48.740;9.106;2023-05-29T00:33:02;13.00;99.90
4487;DHT22;2256;48.740;9.106;2023-05-29T00:35:28;12.90;99.90
4487;DHT22;2256;48.740;9.106;2023-05-29T00:37:55;12.90;99.90
4487;DHT22;2256;48.740;9.106;2023-05-29T00:40:23;12.80;99.90
4487;DHT22;2256;48.740;9.106;2023-05-29T00:42:50;12.80;99.90
4487;DHT22;2256;48.740;9.106;2023-05-29T00:45:18;12.70;99.90
4487;DHT22;2256;48.740;9.106;2023-05-29T00:47:45;12.60;99.90
4487;DHT22;2256;48.740;9.106;2023-05-29T00:50:14;12.70;99.90
4487;DHT22;2256;48.740;9.106;2023-05-29T00:52:41;12.60;99.90
4487;DHT22;2256;48.740;9.106;2023-05-29T00:55:09;12.60;99.90
4487;DHT22;2256;48.740;9.106;2023-05-29T00:57:36;12.50;99.90
4487;DHT22;2256;48.740;9.106;2023-05-29T01:00:06;12.50;99.90
4487;DHT22;2256;48.740;9.106;2023-05-29T01:02:36;12.40;99.90
4487;DHT22;2256;48.740;9.106;2023-05-29T01:05:04;12.30;99.90
4487;DHT22;2256;48.740;9.106;2023-05-29T01:07:32;12.30;99.90
4487;DHT22;2256;48.740;9.106;2023-05-29T01:09:59;12.20;99.90
4487;DHT22;2256;48.740;9.106;2023-05-29T01:12:33;12.20;99.90
4487;DHT22;2256;48.740;9.106;2023-05-29T01:15:20;12.10;99.90
4487;DHT22;2256;48.740;9.106;2023-05-29T01:18:07;12.00;99.90
4487;DHT22;2256;48.740;9.106;2023-05-29T01:20:40;12.00;99.90
4487;DHT22;2256;48.740;9.106;2023-05-29T01:23:35;12.00;99.90
4487;DHT22;2256;48.740;9.106;2023-05-29T01:26:11;12.00;99.90
4487;DHT22;2256;48.740;9.106;2023-05-29T01:28:48;12.00;99.90
4487;DHT22;2256;48.740;9.106;2023-05-29T01:31:17;12.10;99.90
4487;DHT22;2256;48.740;9.106;2023-05-29T01:33:52;12.00;99.90
4487;DHT22;2256;48.740;9.106;2023-05-29T01:36:18;12.00;99.90
4487;DHT22;2256;48.740;9.106;2023-05-29T01:38:45;11.90;99.90
4487;DHT22;2256;48.740;9.106;2023-05-29T01:41:14;11.90;99.90
4487;DHT22;2256;48.740;9.106;2023-05-29T01:43:42;11.80;99.90
4487;DHT22;2256;48.740;9.106;2023-05-29T01:46:10;11.80;99.90
4487;DHT22;2256;48.740;9.106;2023-05-29T01:48:37;11.70;99.90
4487;DHT22;2256;48.740;9.106;2023-05-29T01:51:04;11.70;99.90
4487;DHT22;2256;48.740;9.106;2023-05-29T01:53:32;11.70;99.90
4487;DHT22;2256;48.740;9.106;2023-05-29T01:55:59;11.70;99.90
4487;DHT22;2256;48.740;9.106;2023-05-29T01:58:27;11.70;99.90
4487;DHT22;2256;48.740;9.106;2023-05-29T02:00:55;11.70;99.90
4487;DHT22;2256;48.740;9.106;2023-05-29T02:03:24;11.60;99.90
4487;DHT22;2256;48.740;9.106;2023-05-29T02:05:54;11.50;99.90
4487;DHT22;2256;48.740;9.106;2023-05-29T02:08:21;11.60;99.90
4487;DHT22;2256;48.740;9.106;2023-05-29T02:10:48;11.60;99.90
4487;DHT22;2256;48.740;9.106;2023-05-29T02:13:15;11.60;99.90
4487;DHT22;2256;48.740;9.106;2023-05-29T02:15:41;11.60;99.90
4487;DHT22;2256;48.740;9.106;2023-05-29T02:18:10;11.50;99.90
4487;DHT22;2256;48.740;9.106;2023-05-29T02:20:39;11.60;99.90
4487;DHT22;2256;48.740;9.106;2023-05-29T02:23:08;11.60;99.90
4487;DHT22;2256;48.740;9.106;2023-05-29T02:25:35;11.50;99.90
4487;DHT22;2256;48.740;9.106;2023-05-29T02:28:02;11.40;99.90
4487;DHT22;2256;48.740;9.106;2023-05-29T02:30:30;11.40;99.90
4487;DHT22;2256;48.740;9.106;2023-05-29T02:32:57;11.30;99.90
4487;DHT22;2256;48.740;9.106;2023-05-29T02:35:24;11.20;99.90
4487;DHT22;2256;48.740;9.106;2023-05-29T02:37:53;11.20;99.90
4487;DHT22;2256;48.740;9.106;2023-05-29T02:40:20;11.10;99.90
4487;DHT22;2256;48.740;9.106;2023-05-29T02:42:47;11.10;99.90
4487;DHT22;2256;48.740;9.106;2023-05-29T02:45:14;11.10;99.90
4487;DHT22;2256;48.740;9.106;2023-05-29T02:47:41;11.10;99.90
4487;DHT22;2256;48.740;9.106;2023-05-29T02:50:08;11.10;99.90
4487;DHT22;2256;48.740;9.106;2023-05-29T02:52:35;11.10;99.90
4487;DHT22;2256;48.740;9.106;2023-05-29T02:55:04;11.10;99.90
4487;DHT22;2256;48.740;9.106;2023-05-29T02:57:32;11.10;99.90
4487;DHT22;2256;48.740;9.106;2023-05-29T02:59:59;11.10;99.90
4487;DHT22;2256;48.740;9.106;2023-05-29T03:02:26;11.00;99.90
4487;DHT22;2256;48.740;9.106;2023-05-29T03:04:53;11.00;99.90
4487;DHT22;2256;48.740;9.106;2023-05-29T03:07:20;11.00;99.90
4487;DHT22;2256;48.740;9.106;2023-05-29T03:09:47;10.90;99.90
4487;DHT22;2256;48.740;9.106;2023-05-29T03:12:15;10.90;99.90
4487;DHT22;2256;48.740;9.106;2023-05-29T03:14:42;10.80;99.90
4487;DHT22;2256;48.740;9.106;2023-05-29T03:17:09;10.80;99.90
4487;DHT22;2256;48.740;9.106;2023-05-29T03:19:35;10.80;99.90
4487;DHT22;2256;48.740;9.106;2023-05-29T03:22:04;10.70;99.90
4487;DHT22;2256;48.740;9.106;2023-05-29T03:24:31;10.80;99.90
4487;DHT22;2256;48.740;9.106;2023-05-29T03:27:00;10.70;99.90
4487;DHT22;2256;48.740;9.106;2023-05-29T03:29:30;10.70;99.90
4487;DHT22;2256;48.740;9.106;2023-05-29T03:31:57;10.70;99.90
4487;DHT22;2256;48.740;9.106;2023-05-29T03:34:23;10.70;99.90
4487;DHT22;2256;48.740;9.106;2023-05-29T03:36:50;10.80;99.90
4487;DHT22;2256;48.740;9.106;2023-05-29T03:39:17;10.70;99.90
4487;DHT22;2256;48.740;9.106;2023-05-29T03:41:44;10.60;99.90
4487;DHT22;2256;48.740;9.106;2023-05-29T03:44:11;10.70;99.90
4487;DHT22;2256;48.740;9.106;2023-05-29T03:46:39;10.70;99.90
4487;DHT22;2256;48.740;9.106;2023-05-29T03:49:06;10.70;99.90
4487;DHT22;2256;48.740;9.106;2023-05-29T03:51:33;10.70;99.90
4487;DHT22;2256;48.740;9.106;2023-05-29T03:54:01;10.60;99.90
4487;DHT22;2256;48.740;9.106;2023-05-29T03:56:27;10.60;99.90
4487;DHT22;2256;48.740;9.106;2023-05-29T03:58:54;10.50;99.90
4487;DHT22;2256;48.740;9.106;2023-05-29T04:01:21;10.50;99.90
4487;DHT22;2256;48.740;9.106;2023-05-29T04:03:49;10.50;99.90
4487;DHT22;2256;48.740;9.106;2023-05-29T04:06:16;10.70;99.90
4487;DHT22;2256;48.740;9.106;2023-05-29T04:08:43;10.70;99.90
4487;DHT22;2256;48.740;9.106;2023-05-29T04:11:10;10.70;99.90
4487;DHT22;2256;48.740;9.106;2023-05-29T04:13:39;10.80;99.90
4487;DHT22;2256;48.740;9.106;2023-05-29T04:16:06;10.80;99.90
4487;DHT22;2256;48.740;9.106;2023-05-29T04:18:33;10.90;99.90
4487;DHT22;2256;48.740;9.106;2023-05-29T04:21:01;11.00;99.90
4487;DHT22;2256;48.740;9.106;2023-05-29T04:23:28;11.00;99.90
4487;DHT22;2256;48.740;9.106;2023-05-29T04:25:55;11.10;99.90
4487;DHT22;2256;48.740;9.106;2023-05-29T04:28:22;11.10;99.90
4487;DHT22;2256;48.740;9.106;2023-05-29T04:30:50;11.20;99.90
4487;DHT22;2256;48.740;9.106;2023-05-29T04:33:17;11.30;99.90
4487;DHT22;2256;48.740;9.106;2023-05-29T04:35:46;11.30;99.90
4487;DHT22;2256;48.740;9.106;2023-05-29T04:38:15;11.40;99.90
4487;DHT22;2256;48.740;9.106;2023-05-29T04:40:42;11.50;99.90
4487;DHT22;2256;48.740;9.106;2023-05-29T04:43:10;11.50;99.90
4487;DHT22;2256;48.740;9.106;2023-05-29T04:45:36;11.60;99.90
4487;DHT22;2256;48.740;9.106;2023-05-29T04:48:03;11.70;99.90
4487;DHT22;2256;48.740;9.106;2023-05-29T04:50:30;11.70;99.90
4487;DHT22;2256;48.740;9.106;2023-05-29T04:52:57;11.80;99.90
4487;DHT22;2256;48.740;9.106;2023-05-29T04:55:25;11.90;99.90
4487;DHT22;2256;48.740;9.106;2023-05-29T04:57:53;12.00;99.90
4487;DHT22;2256;48.740;9.106;2023-05-29T05:00:20;12.20;99.90
4487;DHT22;2256;48.740;9.106;2023-05-29T05:02:48;12.30;99.90
4487;DHT22;2256;48.740;9.106;2023-05-29T05:05:16;12.40;99.90
4487;DHT22;2256;48.740;9.106;2023-05-29T05:07:43;12.40;99.90
4487;DHT22;2256;48.740;9.106;2023-05-29T05:10:10;12.60;99.90
4487;DHT22;2256;48.740;9.106;2023-05-29T05:12:38;12.70;99.90
4487;DHT22;2256;48.740;9.106;2023-05-29T05:15:06;12.90;99.90
4487;DHT22;2256;48.740;9.106;2023-05-29T05:17:33;12.90;99.90
4487;DHT22;2256;48.740;9.106;2023-05-29T05:20:00;13.10;99.90
4487;DHT22;2256;48.740;9.106;2023-05-29T05:22:28;13.20;99.90
4487;DHT22;2256;48.740;9.106;2023-05-29T05:24:55;13.40;99.90
4487;DHT22;2256;48.740;9.106;2023-05-29T05:27:22;13.60;99.90
4487;DHT22;2256;48.740;9.106;2023-05-29T05:29:50;13.60;99.90
4487;DHT22;2256;48.740;9.106;2023-05-29T05:32:17;13.70;99.90
4487;DHT22;2256;48.740;9.106;2023-05-29T05:34:44;13.80;99.90
4487;DHT22;2256;48.740;9.106;2023-05-29T05:37:11;14.00;99.90
4487;DHT22;2256;48.740;9.106;2023-05-29T05:39:38;14.20;99.90
4487;DHT22;2256;48.740;9.106;2023-05-29T05:42:05;14.30;99.90
4487;DHT22;2256;48.740;9.106;2023-05-29T05:44:32;14.40;99.90
4487;DHT22;2256;48.740;9.106;2023-05-29T05:47:00;14.40;99.90
4487;DHT22;2256;48.740;9.106;2023-05-29T05:49:27;14.60;99.90
4487;DHT22;2256;48.740;9.106;2023-05-29T05:51:54;14.70;99.90
4487;DHT22;2256;48.740;9.106;2023-05-29T05:54:21;14.80;99.90
4487;DHT22;2256;48.740;9.106;2023-05-29T05:56:47;15.00;99.90
4487;DHT22;2256;48.740;9.106;2023-05-29T05:59:14;15.10;99.90
4487;DHT22;2256;48.740;9.106;2023-05-29T06:01:41;15.30;99.90
4487;DHT22;2256;48.740;9.106;2023-05-29T06:04:09;15.50;99.90
4487;DHT22;2256;48.740;9.106;2023-05-29T06:06:36;15.60;99.90
4487;DHT22;2256;48.740;9.106;2023-05-29T06:09:03;15.70;99.90
4487;DHT22;2256;48.740;9.106;2023-05-29T06:11:30;15.80;99.90
4487;DHT22;2256;48.740;9.106;2023-05-29T06:13:57;16.00;99.90
4487;DHT22;2256;48.740;9.106;2023-05-29T06:16:24;16.20;99.10
4487;DHT22;2256;48.740;9.106;2023-05-29T06:18:51;16.60;99.80
4487;DHT22;2256;48.740;9.106;2023-05-29T06:21:20;17.10;98.90
4487;DHT22;2256;48.740;9.106;2023-05-29T06:23:48;17.40;99.10
4487;DHT22;2256;48.740;9.106;2023-05-29T06:26:14;17.40;98.70
4487;DHT22;2256;48.740;9.106;2023-05-29T06:28:42;17.50;99.20
4487;DHT22;2256;48.740;9.106;2023-05-29T06:31:09;17.80;99.00
4487;DHT22;2256;48.740;9.106;2023-05-29T06:33:36;18.70;97.80
4487;DHT22;2256;48.740;9.106;2023-05-29T06:36:03;19.80;97.00
4487;DHT22;2256;48.740;9.106;2023-05-29T06:38:32;20.70;94.50
4487;DHT22;2256;48.740;9.106;2023-05-29T06:40:59;21.50;93.60
4487;DHT22;2256;48.740;9.106;2023-05-29T06:43:27;22.10;92.60
4487;DHT22;2256;48.740;9.106;2023-05-29T06:45:54;22.70;91.70
4487;DHT22;2256;48.740;9.106;2023-05-29T06:48:21;23.20;91.50
4487;DHT22;2256;48.740;9.106;2023-05-29T06:50:48;23.50;90.50
4487;DHT22;2256;48.740;9.106;2023-05-29T06:53:15;23.90;90.20
4487;DHT22;2256;48.740;9.106;2023-05-29T06:55:43;24.10;89.30
4487;DHT22;2256;48.740;9.106;2023-05-29T06:58:09;24.00;89.40
4487;DHT22;2256;48.740;9.106;2023-05-29T07:00:36;23.80;89.70
4487;DHT22;2256;48.740;9.106;2023-05-29T07:03:03;24.30;89.70
4487;DHT22;2256;48.740;9.106;2023-05-29T07:05:30;24.50;87.70
4487;DHT22;2256;48.740;9.106;2023-05-29T07:07:56;24.80;89.50
4487;DHT22;2256;48.740;9.106;2023-05-29T07:10:23;25.00;88.80
4487;DHT22;2256;48.740;9.106;2023-05-29T07:12:51;25.10;86.80
4487;DHT22;2256;48.740;9.106;2023-05-29T07:15:18;25.00;86.30
4487;DHT22;2256;48.740;9.106;2023-05-29T07:17:45;25.10;85.60
4487;DHT22;2256;48.740;9.106;2023-05-29T07:20:12;25.00;84.90
4487;DHT22;2256;48.740;9.106;2023-05-29T07:22:40;25.00;85.30
4487;DHT22;2256;48.740;9.106;2023-05-29T07:25:08;24.80;85.30
4487;DHT22;2256;48.740;9.106;2023-05-29T07:27:35;25.00;85.70
4487;DHT22;2256;48.740;9.106;2023-05-29T07:30:03;25.20;85.90
4487;DHT22;2256;48.740;9.106;2023-05-29T07:32:31;25.50;84.40
4487;DHT22;2256;48.740;9.106;2023-05-29T07:34:58;25.90;84.30
4487;DHT22;2256;48.740;9.106;2023-05-29T07:37:24;26.10;82.80
4487;DHT22;2256;48.740;9.106;2023-05-29T07:39:52;26.10;83.80
4487;DHT22;2256;48.740;9.106;2023-05-29T07:42:18;26.20;83.90
4487;DHT22;2256;48.740;9.106;2023-05-29T07:44:45;26.40;82.20
4487;DHT22;2256;48.740;9.106;2023-05-29T07:47:14;26.50;82.00
4487;DHT22;2256;48.740;9.106;2023-05-29T07:49:41;26.50;82.00
4487;DHT22;2256;48.740;9.106;2023-05-29T07:52:08;26.40;81.40
4487;DHT22;2256;48.740;9.106;2023-05-29T07:54:35;26.50;81.20
4487;DHT22;2256;48.740;9.106;2023-05-29T07:57:02;26.00;81.50
4487;DHT22;2256;48.740;9.106;2023-05-29T07:59:29;25.50;83.30
4487;DHT22;2256;48.740;9.106;2023-05-29T08:01:56;25.50;82.80
4487;DHT22;2256;48.740;9.106;2023-05-29T08:04:25;25.60;83.40
4487;DHT22;2256;48.740;9.106;2023-05-29T08:06:51;25.70;81.80
4487;DHT22;2256;48.740;9.106;2023-05-29T08:09:18;26.10;82.80
4487;DHT22;2256;48.740;9.106;2023-05-29T08:11:46;25.90;82.40
4487;DHT22;2256;48.740;9.106;2023-05-29T08:14:13;26.10;84.50
4487;DHT22;2256;48.740;9.106;2023-05-29T08:16:40;26.20;81.60
4487;DHT22;2256;48.740;9.106;2023-05-29T08:19:07;26.40;81.60
4487;DHT22;2256;48.740;9.106;2023-05-29T08:21:35;26.50;82.00
4487;DHT22;2256;48.740;9.106;2023-05-29T08:24:04;26.80;82.40
4487;DHT22;2256;48.740;9.106;2023-05-29T08:26:31;27.40;83.10
4487;DHT22;2256;48.740;9.106;2023-05-29T08:28:58;27.50;80.50
4487;DHT22;2256;48.740;9.106;2023-05-29T08:31:25;27.80;80.70
4487;DHT22;2256;48.740;9.106;2023-05-29T08:33:52;27.30;78.60
4487;DHT22;2256;48.740;9.106;2023-05-29T08:36:19;27.20;78.10
4487;DHT22;2256;48.740;9.106;2023-05-29T08:38:48;26.90;77.70
4487;DHT22;2256;48.740;9.106;2023-05-29T08:41:21;26.70;80.40
4487;DHT22;2256;48.740;9.106;2023-05-29T08:43:49;26.50;80.00
4487;DHT22;2256;48.740;9.106;2023-05-29T08:46:18;26.40;81.30
4487;DHT22;2256;48.740;9.106;2023-05-29T08:48:48;26.50;78.80
4487;DHT22;2256;48.740;9.106;2023-05-29T08:51:17;25.80;79.70
4487;DHT22;2256;48.740;9.106;2023-05-29T08:53:47;25.70;80.40
4487;DHT22;2256;48.740;9.106;2023-05-29T08:56:14;25.80;80.20
4487;DHT22;2256;48.740;9.106;2023-05-29T08:58:41;25.70;80.70
4487;DHT22;2256;48.740;9.106;2023-05-29T09:01:09;25.70;81.90
4487;DHT22;2256;48.740;9.106;2023-05-29T09:03:36;26.10;81.20
4487;DHT22;2256;48.740;9.106;2023-05-29T09:06:03;26.50;79.80
4487;DHT22;2256;48.740;9.106;2023-05-29T09:08:33;26.50;79.20
4487;DHT22;2256;48.740;9.106;2023-05-29T09:11:01;26.20;80.10
4487;DHT22;2256;48.740;9.106;2023-05-29T09:13:28;26.30;79.40
4487;DHT22;2256;48.740;9.106;2023-05-29T09:15:58;26.70;78.20
4487;DHT22;2256;48.740;9.106;2023-05-29T09:18:28;26.60;79.20
4487;DHT22;2256;48.740;9.106;2023-05-29T09:20:55;26.10;80.80
4487;DHT22;2256;48.740;9.106;2023-05-29T09:23:22;26.00;80.00
4487;DHT22;2256;48.740;9.106;2023-05-29T09:25:52;25.70;80.80
4487;DHT22;2256;48.740;9.106;2023-05-29T09:28:21;25.20;81.70
4487;DHT22;2256;48.740;9.106;2023-05-29T09:30:49;25.00;82.90
4487;DHT22;2256;48.740;9.106;2023-05-29T09:33:16;25.30;81.50
4487;DHT22;2256;48.740;9.106;2023-05-29T09:35:44;25.90;82.50
4487;DHT22;2256;48.740;9.106;2023-05-29T09:38:13;26.30;81.10
4487;DHT22;2256;48.740;9.106;2023-05-29T09:40:41;25.60;80.60
4487;DHT22;2256;48.740;9.106;2023-05-29T09:43:12;25.00;82.00
4487;DHT22;2256;48.740;9.106;2023-05-29T09:45:42;24.30;82.40
4487;DHT22;2256;48.740;9.106;2023-05-29T09:48:13;24.50;82.00
4487;DHT22;2256;48.740;9.106;2023-05-29T09:50:41;25.30;82.80
4487;DHT22;2256;48.740;9.106;2023-05-29T09:53:20;25.40;81.90
4487;DHT22;2256;48.740;9.106;2023-05-29T09:55:50;25.20;81.90
4487;DHT22;2256;48.740;9.106;2023-05-29T09:58:19;24.90;83.50
4487;DHT22;2256;48.740;9.106;2023-05-29T10:00:48;25.40;84.00
4487;DHT22;2256;48.740;9.106;2023-05-29T10:03:15;26.30;83.80
4487;DHT22;2256;48.740;9.106;2023-05-29T10:05:42;27.00;81.90
4487;DHT22;2256;48.740;9.106;2023-05-29T10:08:12;27.30;80.90
4487;DHT22;2256;48.740;9.106;2023-05-29T10:10:42;27.00;83.90
4487;DHT22;2256;48.740;9.106;2023-05-29T10:13:11;26.20;80.10
4487;DHT22;2256;48.740;9.106;2023-05-29T10:15:40;25.30;82.20
4487;DHT22;2256;48.740;9.106;2023-05-29T10:18:12;25.40;82.40
4487;DHT22;2256;48.740;9.106;2023-05-29T10:20:40;25.70;81.90
4487;DHT22;2256;48.740;9.106;2023-05-29T10:23:10;25.80;82.40
4487;DHT22;2256;48.740;9.106;2023-05-29T10:25:39;25.80;81.60
4487;DHT22;2256;48.740;9.106;2023-05-29T10:28:09;25.40;82.40
4487;DHT22;2256;48.740;9.106;2023-05-29T10:30:39;25.20;82.90
4487;DHT22;2256;48.740;9.106;2023-05-29T10:33:20;25.10;83.30
4487;DHT22;2256;48.740;9.106;2023-05-29T10:35:55;24.80;82.10
4487;DHT22;2256;48.740;9.106;2023-05-29T10:38:28;25.00;85.20
4487;DHT22;2256;48.740;9.106;2023-05-29T10:40:55;24.80;82.20
4487;DHT22;2256;48.740;9.106;2023-05-29T10:43:32;24.70;82.70
4487;DHT22;2256;48.740;9.106;2023-05-29T10:45:59;24.90;84.70
4487;DHT22;2256;48.740;9.106;2023-05-29T10:48:43;25.10;80.40
4487;DHT22;2256;48.740;9.106;2023-05-29T10:51:25;24.60;79.90
4487;DHT22;2256;48.740;9.106;2023-05-29T10:53:53;24.60;80.30
4487;DHT22;2256;48.740;9.106;2023-05-29T10:56:27;24.80;80.90
4487;DHT22;2256;48.740;9.106;2023-05-29T10:58:55;25.00;81.80
4487;DHT22;2256;48.740;9.106;2023-05-29T11:01:23;25.00;81.10
4487;DHT22;2256;48.740;9.106;2023-05-29T11:03:54;25.00;79.90
4487;DHT22;2256;48.740;9.106;2023-05-29T11:06:41;24.50;78.30
4487;DHT22;2256;48.740;9.106;2023-05-29T11:09:26;23.90;80.20
4487;DHT22;2256;48.740;9.106;2023-05-29T11:12:12;24.20;80.00
4487;DHT22;2256;48.740;9.106;2023-05-29T11:14:46;24.40;79.60
4487;DHT22;2256;48.740;9.106;2023-05-29T11:17:32;24.30;79.30
4487;DHT22;2256;48.740;9.106;2023-05-29T11:20:03;24.10;79.40
4487;DHT22;2256;48.740;9.106;2023-05-29T11:22:56;24.40;79.70
4487;DHT22;2256;48.740;9.106;2023-05-29T11:25:27;24.50;79.10
4487;DHT22;2256;48.740;9.106;2023-05-29T11:27:54;24.80;79.50
4487;DHT22;2256;48.740;9.106;2023-05-29T11:30:21;24.60;77.40
4487;DHT22;2256;48.740;9.106;2023-05-29T11:32:48;24.40;77.50
4487;DHT22;2256;48.740;9.106;2023-05-29T11:35:21;24.50;77.70
4487;DHT22;2256;48.740;9.106;2023-05-29T11:37:48;24.60;77.50
4487;DHT22;2256;48.740;9.106;2023-05-29T11:40:15;24.70;78.80
4487;DHT22;2256;48.740;9.106;2023-05-29T11:42:44;25.20;80.60
4487;DHT22;2256;48.740;9.106;2023-05-29T11:45:12;25.10;77.10
4487;DHT22;2256;48.740;9.106;2023-05-29T11:47:53;24.70;79.70
4487;DHT22;2256;48.740;9.106;2023-05-29T11:50:22;24.50;77.40
4487;DHT22;2256;48.740;9.106;2023-05-29T11:52:49;24.50;81.70
4487;DHT22;2256;48.740;9.106;2023-05-29T11:55:17;24.70;78.40
4487;DHT22;2256;48.740;9.106;2023-05-29T11:57:44;25.00;77.70
4487;DHT22;2256;48.740;9.106;2023-05-29T12:00:13;25.10;77.00
4487;DHT22;2256;48.740;9.106;2023-05-29T12:02:40;25.10;77.00
4487;DHT22;2256;48.740;9.106;2023-05-29T12:05:09;24.90;74.80
4487;DHT22;2256;48.740;9.106;2023-05-29T12:07:47;25.20;74.90
4487;DHT22;2256;48.740;9.106;2023-05-29T12:10:15;25.50;75.40
4487;DHT22;2256;48.740;9.106;2023-05-29T12:12:42;25.60;74.50
4487;DHT22;2256;48.740;9.106;2023-05-29T12:15:13;25.60;73.30
4487;DHT22;2256;48.740;9.106;2023-05-29T12:17:40;25.60;72.70
4487;DHT22;2256;48.740;9.106;2023-05-29T12:20:08;25.60;72.70
4487;DHT22;2256;48.740;9.106;2023-05-29T12:22:37;25.60;71.30
4487;DHT22;2256;48.740;9.106;2023-05-29T12:25:08;25.30;71.10
4487;DHT22;2256;48.740;9.106;2023-05-29T12:27:38;25.10;70.50
4487;DHT22;2256;48.740;9.106;2023-05-29T12:30:09;25.00;71.20
4487;DHT22;2256;48.740;9.106;2023-05-29T12:32:37;25.30;73.80
4487;DHT22;2256;48.740;9.106;2023-05-29T12:35:16;25.40;72.00
4487;DHT22;2256;48.740;9.106;2023-05-29T12:37:46;25.50;70.30
4487;DHT22;2256;48.740;9.106;2023-05-29T12:40:19;25.30;69.50
4487;DHT22;2256;48.740;9.106;2023-05-29T12:42:46;25.20;70.30
4487;DHT22;2256;48.740;9.106;2023-05-29T12:45:14;25.00;70.70
4487;DHT22;2256;48.740;9.106;2023-05-29T12:47:50;25.20;70.10
4487;DHT22;2256;48.740;9.106;2023-05-29T12:50:25;25.10;73.10
4487;DHT22;2256;48.740;9.106;2023-05-29T12:52:56;25.10;70.40
4487;DHT22;2256;48.740;9.106;2023-05-29T12:55:25;24.70;71.10
4487;DHT22;2256;48.740;9.106;2023-05-29T12:57:52;24.70;72.80
4487;DHT22;2256;48.740;9.106;2023-05-29T13:00:20;24.70;68.80
4487;DHT22;2256;48.740;9.106;2023-05-29T13:02:47;24.80;69.90
4487;DHT22;2256;48.740;9.106;2023-05-29T13:05:14;24.90;70.40
4487;DHT22;2256;48.740;9.106;2023-05-29T13:07:44;25.00;68.50
4487;DHT22;2256;48.740;9.106;2023-05-29T13:10:11;24.80;68.60
4487;DHT22;2256;48.740;9.106;2023-05-29T13:12:39;24.80;69.50
4487;DHT22;2256;48.740;9.106;2023-05-29T13:15:07;25.00;70.90
4487;DHT22;2256;48.740;9.106;2023-05-29T13:17:34;25.10;68.90
4487;DHT22;2256;48.740;9.106;2023-05-29T13:20:00;25.30;66.80
4487;DHT22;2256;48.740;9.106;2023-05-29T13:22:27;25.30;64.90
4487;DHT22;2256;48.740;9.106;2023-05-29T13:24:57;25.50;66.40
4487;DHT22;2256;48.740;9.106;2023-05-29T13:27:25;25.60;66.40
4487;DHT22;2256;48.740;9.106;2023-05-29T13:29:53;25.50;67.00
4487;DHT22;2256;48.740;9.106;2023-05-29T13:32:20;25.50;66.00
4487;DHT22;2256;48.740;9.106;2023-05-29T13:34:47;25.60;66.00
4487;DHT22;2256;48.740;9.106;2023-05-29T13:37:14;25.60;64.50
4487;DHT22;2256;48.740;9.106;2023-05-29T13:39:40;25.50;64.50
4487;DHT22;2256;48.740;9.106;2023-05-29T13:42:08;25.60;68.80
4487;DHT22;2256;48.740;9.106;2023-05-29T13:44:36;25.60;64.60
4487;DHT22;2256;48.740;9.106;2023-05-29T13:47:05;25.50;70.00
4487;DHT22;2256;48.740;9.106;2023-05-29T13:49:33;25.40;65.90
4487;DHT22;2256;48.740;9.106;2023-05-29T13:51:59;25.40;65.40
4487;DHT22;2256;48.740;9.106;2023-05-29T13:54:26;25.40;64.40
4487;DHT22;2256;48.740;9.106;2023-05-29T13:56:55;25.50;65.70
4487;DHT22;2256;48.740;9.106;2023-05-29T13:59:22;25.50;65.40
4487;DHT22;2256;48.740;9.106;2023-05-29T14:01:49;24.90;64.90
4487;DHT22;2256;48.740;9.106;2023-05-29T14:04:17;24.90;65.90
4487;DHT22;2256;48.740;9.106;2023-05-29T14:06:44;25.10;64.90
4487;DHT22;2256;48.740;9.106;2023-05-29T14:09:11;25.00;64.80
4487;DHT22;2256;48.740;9.106;2023-05-29T14:11:38;25.00;65.10
4487;DHT22;2256;48.740;9.106;2023-05-29T14:14:05;25.00;65.30
4487;DHT22;2256;48.740;9.106;2023-05-29T14:16:32;25.30;67.60
4487;DHT22;2256;48.740;9.106;2023-05-29T14:18:59;25.60;67.20
4487;DHT22;2256;48.740;9.106;2023-05-29T14:21:28;25.70;65.80
4487;DHT22;2256;48.740;9.106;2023-05-29T14:23:54;25.70;65.10
4487;DHT22;2256;48.740;9.106;2023-05-29T14:26:21;25.40;63.80
4487;DHT22;2256;48.740;9.106;2023-05-29T14:28:48;25.30;64.90
4487;DHT22;2256;48.740;9.106;2023-05-29T14:31:15;25.30;65.80
4487;DHT22;2256;48.740;9.106;2023-05-29T14:33:41;25.50;66.30
4487;DHT22;2256;48.740;9.106;2023-05-29T14:36:08;25.60;66.50
4487;DHT22;2256;48.740;9.106;2023-05-29T14:38:37;25.60;66.00
4487;DHT22;2256;48.740;9.106;2023-05-29T14:41:04;25.60;65.90
4487;DHT22;2256;48.740;9.106;2023-05-29T14:43:32;25.60;65.60
4487;DHT22;2256;48.740;9.106;2023-05-29T14:45:59;25.50;66.60
4487;DHT22;2256;48.740;9.106;2023-05-29T14:48:26;25.40;66.00
4487;DHT22;2256;48.740;9.106;2023-05-29T14:50:52;25.20;66.40
4487;DHT22;2256;48.740;9.106;2023-05-29T14:53:19;25.00;66.50
4487;DHT22;2256;48.740;9.106;2023-05-29T14:55:49;25.20;66.60
4487;DHT22;2256;48.740;9.106;2023-05-29T14:58:16;25.30;67.20
4487;DHT22;2256;48.740;9.106;2023-05-29T15:00:43;25.50;66.70
4487;DHT22;2256;48.740;9.106;2023-05-29T15:03:10;25.50;66.00
4487;DHT22;2256;48.740;9.106;2023-05-29T15:05:36;25.40;65.90
4487;DHT22;2256;48.740;9.106;2023-05-29T15:08:03;25.20;66.10
4487;DHT22;2256;48.740;9.106;2023-05-29T15:10:30;25.20;65.50
4487;DHT22;2256;48.740;9.106;2023-05-29T15:12:59;25.20;66.10
4487;DHT22;2256;48.740;9.106;2023-05-29T15:15:29;25.30;67.70
4487;DHT22;2256;48.740;9.106;2023-05-29T15:17:56;25.00;65.10
4487;DHT22;2256;48.740;9.106;2023-05-29T15:20:24;25.10;66.00
4487;DHT22;2256;48.740;9.106;2023-05-29T15:22:52;25.20;66.50
4487;DHT22;2256;48.740;9.106;2023-05-29T15:25:20;25.30;66.40
4487;DHT22;2256;48.740;9.106;2023-05-29T15:27:47;25.40;67.80
4487;DHT22;2256;48.740;9.106;2023-05-29T15:30:17;25.50;67.00
4487;DHT22;2256;48.740;9.106;2023-05-29T15:32:45;25.40;66.70
4487;DHT22;2256;48.740;9.106;2023-05-29T15:35:13;25.40;67.70
4487;DHT22;2256;48.740;9.106;2023-05-29T15:37:41;25.30;68.10
4487;DHT22;2256;48.740;9.106;2023-05-29T15:40:09;25.30;68.60
4487;DHT22;2256;48.740;9.106;2023-05-29T15:42:36;25.30;70.50
4487;DHT22;2256;48.740;9.106;2023-05-29T15:45:04;25.00;68.80
4487;DHT22;2256;48.740;9.106;2023-05-29T15:47:32;24.90;69.80
4487;DHT22;2256;48.740;9.106;2023-05-29T15:49:59;24.80;69.90
4487;DHT22;2256;48.740;9.106;2023-05-29T15:52:26;24.90;69.80
4487;DHT22;2256;48.740;9.106;2023-05-29T15:54:53;24.70;69.50
4487;DHT22;2256;48.740;9.106;2023-05-29T15:57:19;24.70;71.00
4487;DHT22;2256;48.740;9.106;2023-05-29T15:59:46;24.80;70.70
4487;DHT22;2256;48.740;9.106;2023-05-29T16:02:13;24.80;71.10
4487;DHT22;2256;48.740;9.106;2023-05-29T16:04:41;24.70;69.90
4487;DHT22;2256;48.740;9.106;2023-05-29T16:07:08;24.60;71.00
4487;DHT22;2256;48.740;9.106;2023-05-29T16:09:35;24.70;70.70